createdAt,value
2023-03-07T00:00:08.947Z,7.90
2023-03-07T00:02:37.274Z,7.90
2023-03-07T00:05:06.093Z,7.90
2023-03-07T00:07:35.267Z,7.90
2023-03-07T00:10:05.521Z,7.90
2023-03-07T00:12:33.734Z,7.90
2023-03-07T00:15:01.961Z,7.90
2023-03-07T00:17:30.176Z,7.90
2023-03-07T00:19:58.403Z,7.90
2023-03-07T00:22:26.653Z,7.90
2023-03-07T00:24:55.088Z,7.90
2023-03-07T00:27:24.940Z,7.90
2023-03-07T00:29:53.357Z,7.90
2023-03-07T00:32:21.757Z,7.90
2023-03-07T00:34:50.020Z,7.90
2023-03-07T00:37:18.405Z,7.90
2023-03-07T00:42:15.277Z,7.90
2023-03-07T00:44:44.964Z,7.90
2023-03-07T00:47:13.273Z,7.90
2023-03-07T00:49:41.581Z,8.20
2023-03-07T00:52:10.103Z,7.90
2023-03-07T00:54:38.491Z,7.90
2023-03-07T00:57:06.937Z,7.90
2023-03-07T00:59:35.320Z,7.90
2023-03-07T01:02:05.005Z,7.90
2023-03-07T01:04:33.229Z,7.90
2023-03-07T01:07:01.550Z,7.90
2023-03-07T01:09:29.996Z,7.90
2023-03-07T01:11:58.556Z,7.80
2023-03-07T01:14:27.426Z,7.80
2023-03-07T01:16:55.976Z,7.80
2023-03-07T01:19:25.663Z,7.80
2023-03-07T01:21:56.237Z,7.80
2023-03-07T01:24:24.861Z,7.80
2023-03-07T01:26:53.777Z,7.80
2023-03-07T01:29:24.341Z,7.80
2023-03-07T01:31:52.915Z,7.70
2023-03-07T01:34:21.384Z,7.70
2023-03-07T01:36:53.357Z,7.80
2023-03-07T01:39:21.734Z,7.80
2023-03-07T01:41:55.461Z,7.80
2023-03-07T01:44:28.185Z,7.80
2023-03-07T01:46:57.941Z,7.80
2023-03-07T01:49:34.938Z,7.80
2023-03-07T01:52:11.238Z,7.80
2023-03-07T01:54:48.935Z,7.80
2023-03-07T01:57:21.647Z,7.80
2023-03-07T01:59:54.583Z,7.80
2023-03-07T02:02:24.551Z,7.80
2023-03-07T02:04:58.366Z,7.80
2023-03-07T02:07:32.818Z,7.80
2023-03-07T02:10:02.446Z,7.80
2023-03-07T02:12:31.304Z,7.80
2023-03-07T02:14:59.640Z,7.80
2023-03-07T02:17:28.163Z,7.80
2023-03-07T02:20:13.112Z,7.80
2023-03-07T02:22:43.435Z,7.80
2023-03-07T02:25:19.484Z,7.80
2023-03-07T02:27:53.152Z,7.80
2023-03-07T02:30:23.228Z,7.80
2023-03-07T02:32:54.007Z,7.80
2023-03-07T02:35:25.616Z,7.80
2023-03-07T02:38:04.193Z,7.80
2023-03-07T02:40:33.861Z,7.80
2023-03-07T02:43:09.534Z,7.80
2023-03-07T02:45:40.172Z,7.80
2023-03-07T02:48:08.714Z,7.80
2023-03-07T02:50:37.696Z,7.90
2023-03-07T02:53:06.397Z,7.90
2023-03-07T02:55:34.878Z,7.90
2023-03-07T02:58:07.081Z,7.90
2023-03-07T03:00:35.870Z,7.90
2023-03-07T03:03:05.503Z,7.90
2023-03-07T03:05:34.043Z,7.80
2023-03-07T03:08:02.496Z,7.80
2023-03-07T03:10:32.117Z,7.80
2023-03-07T03:13:02.370Z,7.80
2023-03-07T03:15:32.701Z,7.80
2023-03-07T03:18:01.346Z,7.80
2023-03-07T03:20:29.809Z,7.70
2023-03-07T03:22:58.276Z,7.70
2023-03-07T03:25:27.322Z,7.70
2023-03-07T03:27:56.112Z,7.70
2023-03-07T03:30:28.307Z,7.70
2023-03-07T03:32:58.163Z,7.70
2023-03-07T03:35:27.442Z,7.90
2023-03-07T03:37:57.917Z,7.70
2023-03-07T03:40:27.018Z,7.70
2023-03-07T03:42:55.366Z,7.70
2023-03-07T03:45:26.721Z,7.70
2023-03-07T03:47:55.188Z,7.80
2023-03-07T03:50:24.840Z,7.70
2023-03-07T03:52:53.270Z,7.80
2023-03-07T03:55:21.545Z,7.80
2023-03-07T03:57:49.822Z,7.80
2023-03-07T04:00:21.157Z,7.80
2023-03-07T04:02:50.053Z,7.80
2023-03-07T04:05:19.925Z,7.80
2023-03-07T04:07:52.327Z,7.70
2023-03-07T04:10:20.886Z,7.80
2023-03-07T04:12:49.176Z,7.70
2023-03-07T04:15:17.602Z,7.70
2023-03-07T04:17:45.914Z,7.70
2023-03-07T04:20:17.699Z,7.60
2023-03-07T04:22:47.652Z,7.60
2023-03-07T04:25:17.505Z,7.60
2023-03-07T04:27:45.785Z,7.70
2023-03-07T04:30:15.120Z,7.70
2023-03-07T04:32:43.510Z,7.70
2023-03-07T04:35:11.909Z,7.70
2023-03-07T04:37:40.195Z,7.70
2023-03-07T04:40:09.457Z,7.70
2023-03-07T04:42:39.228Z,7.70
2023-03-07T04:45:08.871Z,7.60
2023-03-07T04:47:37.318Z,7.60
2023-03-07T04:50:06.756Z,7.60
2023-03-07T04:52:36.632Z,7.60
2023-03-07T04:55:05.265Z,7.60
2023-03-07T04:57:33.862Z,7.60
2023-03-07T05:00:03.912Z,7.70
2023-03-07T05:02:32.274Z,7.80
2023-03-07T05:05:03.990Z,7.60
2023-03-07T05:07:32.663Z,7.60
2023-03-07T05:10:01.026Z,7.60
2023-03-07T05:12:30.785Z,7.60
2023-03-07T05:15:00.924Z,7.60
2023-03-07T05:17:31.316Z,7.60
2023-03-07T05:19:59.698Z,7.60
2023-03-07T05:22:28.019Z,7.60
2023-03-07T05:24:56.530Z,7.60
2023-03-07T05:27:24.969Z,7.60
2023-03-07T05:29:53.455Z,7.60
2023-03-07T05:32:22.036Z,7.60
2023-03-07T05:34:52.732Z,7.70
2023-03-07T05:37:23.250Z,7.70
2023-03-07T05:39:51.835Z,7.70
2023-03-07T05:42:20.467Z,7.70
2023-03-07T05:44:50.104Z,7.60
2023-03-07T05:47:18.613Z,7.90
2023-03-07T05:49:46.891Z,7.70
2023-03-07T05:52:16.926Z,7.60
2023-03-07T05:54:45.238Z,7.60
2023-03-07T05:57:14.152Z,7.60
2023-03-07T05:59:42.814Z,7.60
2023-03-07T06:02:11.184Z,7.60
2023-03-07T06:04:39.480Z,7.70
2023-03-07T06:07:07.843Z,7.70
2023-03-07T06:09:37.886Z,7.60
2023-03-07T06:12:06.940Z,7.70
2023-03-07T06:14:35.331Z,7.60
2023-03-07T06:17:04.788Z,7.60
2023-03-07T06:19:34.141Z,7.70
2023-03-07T06:22:03.004Z,7.70
2023-03-07T06:24:31.872Z,7.70
2023-03-07T06:27:02.311Z,7.70
2023-03-07T06:29:30.824Z,7.60
2023-03-07T06:31:59.595Z,7.30
2023-03-07T06:34:28.395Z,7.60
2023-03-07T06:36:59.938Z,7.70
2023-03-07T06:39:30.291Z,7.70
2023-03-07T06:42:02.714Z,7.60
2023-03-07T06:44:33.852Z,8.00
2023-03-07T06:47:04.860Z,7.70
2023-03-07T06:49:33.190Z,7.70
2023-03-07T06:52:01.573Z,7.70
2023-03-07T06:54:30.032Z,7.70
2023-03-07T06:56:58.432Z,7.70
2023-03-07T06:59:28.088Z,7.70
2023-03-07T07:01:56.842Z,7.80
2023-03-07T07:04:25.161Z,7.70
2023-03-07T07:06:54.125Z,7.70
2023-03-07T07:09:22.393Z,7.80
2023-03-07T07:11:50.679Z,7.80
2023-03-07T07:14:18.915Z,7.80
2023-03-07T07:16:49.185Z,7.80
2023-03-07T07:19:17.863Z,7.80
2023-03-07T07:21:46.211Z,7.80
2023-03-07T07:24:14.542Z,7.80
2023-03-07T07:26:43.210Z,7.80
2023-03-07T07:29:12.298Z,7.80
2023-03-07T07:31:40.906Z,7.80
2023-03-07T07:34:10.948Z,7.80
2023-03-07T07:36:39.399Z,7.80
2023-03-07T07:39:10.495Z,7.80
2023-03-07T07:41:42.179Z,7.80
2023-03-07T07:44:10.746Z,7.80
2023-03-07T07:46:49.978Z,7.80
2023-03-07T07:49:19.881Z,7.80
2023-03-07T07:51:48.270Z,7.80
2023-03-07T07:54:16.723Z,7.80
2023-03-07T07:56:45.162Z,7.80
2023-03-07T07:59:13.769Z,7.80
2023-03-07T08:01:42.122Z,7.80
2023-03-07T08:04:11.248Z,7.80
2023-03-07T08:06:40.935Z,7.80
2023-03-07T08:09:09.249Z,7.80
2023-03-07T08:11:38.641Z,7.60
2023-03-07T08:14:06.978Z,7.80
2023-03-07T08:16:35.402Z,7.80
2023-03-07T08:19:04.345Z,7.80
2023-03-07T08:21:32.687Z,7.80
2023-03-07T08:24:04.218Z,7.80
2023-03-07T08:26:33.042Z,7.80
2023-03-07T08:29:01.489Z,7.80
2023-03-07T08:31:29.892Z,7.80
2023-03-07T08:33:58.222Z,7.80
2023-03-07T08:36:26.729Z,7.80
2023-03-07T08:38:55.187Z,7.80
2023-03-07T08:41:25.295Z,7.80
2023-03-07T08:43:55.077Z,7.80
2023-03-07T08:46:23.690Z,7.80
2023-03-07T08:48:51.992Z,7.80
2023-03-07T08:51:20.381Z,7.80
2023-03-07T08:53:49.209Z,7.80
2023-03-07T08:56:19.382Z,7.70
2023-03-07T08:58:49.313Z,7.80
2023-03-07T09:01:17.635Z,7.80
2023-03-07T09:03:46.034Z,7.80
2023-03-07T09:06:18.856Z,7.70
2023-03-07T09:08:47.735Z,7.60
2023-03-07T09:11:16.828Z,7.30
2023-03-07T09:13:52.019Z,7.10
2023-03-07T09:16:23.076Z,7.00
2023-03-07T09:18:52.002Z,6.80
2023-03-07T09:21:20.398Z,6.60
2023-03-07T09:23:48.812Z,6.50
2023-03-07T09:26:17.518Z,6.40
2023-03-07T09:28:46.268Z,6.40
2023-03-07T09:31:16.845Z,6.30
2023-03-07T09:33:47.226Z,6.20
2023-03-07T09:36:17.955Z,6.20
2023-03-07T09:38:47.102Z,6.10
2023-03-07T09:41:43.663Z,6.10
2023-03-07T09:44:24.200Z,6.10
2023-03-07T09:47:44.086Z,6.10
2023-03-07T09:50:21.970Z,6.10
2023-03-07T09:52:52.543Z,6.00
2023-03-07T09:55:23.013Z,5.90
2023-03-07T09:57:55.396Z,5.90
2023-03-07T10:00:27.570Z,5.90
2023-03-07T10:03:03.641Z,6.00
2023-03-07T10:05:38.784Z,6.20
2023-03-07T10:08:10.477Z,6.00
2023-03-07T10:10:43.642Z,6.00
2023-03-07T10:13:40.179Z,6.00
2023-03-07T10:16:19.584Z,6.00
2023-03-07T10:19:05.674Z,6.00
2023-03-07T10:21:44.851Z,6.00
2023-03-07T10:24:37.740Z,6.10
2023-03-07T10:27:09.128Z,6.10
2023-03-07T10:29:46.646Z,6.10
2023-03-07T10:32:34.780Z,6.30
2023-03-07T10:35:15.258Z,6.20
2023-03-07T10:37:51.610Z,6.10
2023-03-07T10:40:26.007Z,6.00
2023-03-07T10:42:55.025Z,6.00
2023-03-07T10:45:24.040Z,6.00
2023-03-07T10:47:52.416Z,6.00
2023-03-07T10:50:32.580Z,5.90
2023-03-07T10:53:04.501Z,6.00
2023-03-07T10:55:38.482Z,6.00
2023-03-07T10:58:21.557Z,6.00
2023-03-07T11:01:14.487Z,6.00
2023-03-07T11:03:53.484Z,6.00
2023-03-07T11:06:35.812Z,6.00
2023-03-07T11:09:17.506Z,6.10
2023-03-07T11:11:55.625Z,6.10
2023-03-07T11:14:24.908Z,6.20
2023-03-07T11:16:56.037Z,6.20
2023-03-07T11:19:37.359Z,6.30
2023-03-07T11:22:17.189Z,6.30
2023-03-07T11:24:54.338Z,6.30
2023-03-07T11:27:25.613Z,6.20
2023-03-07T11:30:29.724Z,6.20
2023-03-07T11:33:04.525Z,6.20
2023-03-07T11:35:57.827Z,6.20
2023-03-07T11:38:37.828Z,6.30
2023-03-07T11:41:13.291Z,6.30
2023-03-07T11:43:51.540Z,6.30
2023-03-07T11:46:28.527Z,6.40
2023-03-07T11:49:07.987Z,6.40
2023-03-07T11:51:49.231Z,6.40
2023-03-07T11:54:25.806Z,6.40
2023-03-07T11:57:01.277Z,6.40
2023-03-07T11:59:53.452Z,6.40
2023-03-07T12:02:48.617Z,6.50
2023-03-07T12:05:29.509Z,6.50
2023-03-07T12:08:26.289Z,6.60
2023-03-07T12:11:03.273Z,6.50
2023-03-07T12:13:41.577Z,6.60
2023-03-07T12:16:20.786Z,6.60
2023-03-07T12:19:10.665Z,6.60
2023-03-07T12:22:02.423Z,6.60
2023-03-07T12:24:36.472Z,6.60
2023-03-07T12:27:12.137Z,6.60
2023-03-07T12:29:45.807Z,6.70
2023-03-07T12:32:19.444Z,6.70
2023-03-07T12:34:54.107Z,6.70
2023-03-07T12:37:26.439Z,6.70
2023-03-07T12:39:57.427Z,6.80
2023-03-07T12:42:36.237Z,6.80
2023-03-07T12:45:12.017Z,6.80
2023-03-07T12:47:55.226Z,6.80
2023-03-07T12:50:28.898Z,6.80
2023-03-07T12:53:04.882Z,6.90
2023-03-07T12:55:37.853Z,6.90
2023-03-07T12:58:10.296Z,6.90
2023-03-07T13:00:44.487Z,6.90
2023-03-07T13:03:18.295Z,6.80
2023-03-07T13:05:46.908Z,6.80
2023-03-07T13:08:21.591Z,6.80
2023-03-07T13:10:50.099Z,6.80
2023-03-07T13:14:03.093Z,6.80
2023-03-07T13:16:46.408Z,6.90
2023-03-07T13:19:53.177Z,6.90
2023-03-07T13:22:58.876Z,6.90
2023-03-07T13:25:59.188Z,6.90
2023-03-07T13:28:52.469Z,6.90
2023-03-07T13:31:43.033Z,6.90
2023-03-07T13:34:51.734Z,6.90
2023-03-07T13:37:52.858Z,6.90
2023-03-07T13:40:53.040Z,6.90
2023-03-07T13:43:55.517Z,6.90
2023-03-07T13:46:58.828Z,6.90
2023-03-07T13:49:46.388Z,6.90
2023-03-07T13:52:53.439Z,6.90
2023-03-07T13:55:30.158Z,6.80
2023-03-07T13:58:01.903Z,6.80
2023-03-07T14:00:38.635Z,6.80
2023-03-07T14:03:29.326Z,6.80
2023-03-07T14:06:04.580Z,6.80
2023-03-07T14:08:36.282Z,6.80
2023-03-07T14:11:07.995Z,6.80
2023-03-07T14:14:21.058Z,6.80
2023-03-07T14:17:01.358Z,6.70
2023-03-07T14:19:44.058Z,6.70
2023-03-07T14:22:26.209Z,6.70
2023-03-07T14:25:07.768Z,6.70
2023-03-07T14:27:51.855Z,6.70
2023-03-07T14:30:21.254Z,6.60
2023-03-07T14:32:49.779Z,6.60
2023-03-07T14:35:37.406Z,6.60
2023-03-07T14:38:09.396Z,6.60
2023-03-07T14:40:49.605Z,6.60
2023-03-07T14:43:38.410Z,6.70
2023-03-07T14:46:19.179Z,6.60
2023-03-07T14:49:05.321Z,6.70
2023-03-07T14:51:41.094Z,6.70
2023-03-07T14:54:16.714Z,6.70
2023-03-07T14:56:45.998Z,6.70
2023-03-07T14:59:27.826Z,6.40
2023-03-07T15:01:58.026Z,6.80
2023-03-07T15:04:29.276Z,6.80
2023-03-07T15:06:59.610Z,6.80
2023-03-07T15:09:28.795Z,6.80
2023-03-07T15:12:02.582Z,6.80
2023-03-07T15:14:41.303Z,6.90
2023-03-07T15:17:16.302Z,6.90
2023-03-07T15:19:48.383Z,6.90
2023-03-07T15:22:20.859Z,6.90
2023-03-07T15:24:51.870Z,6.90
2023-03-07T15:27:25.322Z,6.90
2023-03-07T15:29:56.319Z,6.90
2023-03-07T15:32:34.587Z,6.90
2023-03-07T15:35:04.582Z,7.00
2023-03-07T15:37:33.716Z,6.90
2023-03-07T15:40:03.165Z,6.90
2023-03-07T15:42:31.531Z,7.00
2023-03-07T15:45:03.187Z,7.00
2023-03-07T15:47:32.997Z,7.00
2023-03-07T15:50:04.889Z,7.00
2023-03-07T15:52:35.605Z,7.00
2023-03-07T15:55:08.316Z,7.00
2023-03-07T15:57:48.618Z,7.00
2023-03-07T16:00:22.341Z,7.00
2023-03-07T16:02:52.370Z,7.00
2023-03-07T16:05:38.736Z,7.20
2023-03-07T16:08:15.058Z,7.00
2023-03-07T16:10:49.626Z,7.00
2023-03-07T16:13:20.917Z,7.00
2023-03-07T16:16:02.115Z,7.00
2023-03-07T16:18:31.980Z,7.00
2023-03-07T16:21:00.542Z,7.00
2023-03-07T16:23:31.430Z,7.00
2023-03-07T16:26:03.460Z,7.00
2023-03-07T16:28:31.981Z,6.90
2023-03-07T16:31:01.781Z,7.00
2023-03-07T16:33:30.061Z,6.90
2023-03-07T16:35:58.642Z,6.90
2023-03-07T16:38:26.980Z,7.00
2023-03-07T16:40:55.405Z,7.00
2023-03-07T16:43:32.861Z,7.00
2023-03-07T16:46:04.434Z,6.90
2023-03-07T16:48:33.333Z,6.90
2023-03-07T16:51:01.776Z,6.90
2023-03-07T16:53:30.229Z,6.90
2023-03-07T16:55:59.971Z,6.90
2023-03-07T16:58:33.156Z,6.90
2023-03-07T17:01:03.099Z,6.90
2023-03-07T17:03:31.655Z,6.90
2023-03-07T17:06:00.444Z,6.50
2023-03-07T17:08:28.714Z,6.80
2023-03-07T17:10:57.465Z,6.80
2023-03-07T17:13:25.853Z,6.80
2023-03-07T17:15:54.301Z,6.80
2023-03-07T17:18:26.614Z,6.70
2023-03-07T17:20:55.108Z,6.70
2023-03-07T17:23:26.416Z,6.60
2023-03-07T17:25:54.961Z,6.60
2023-03-07T17:28:23.420Z,6.60
2023-03-07T17:30:51.798Z,6.50
2023-03-07T17:33:20.247Z,6.50
2023-03-07T17:35:50.114Z,6.50
2023-03-07T17:38:18.522Z,6.50
2023-03-07T17:40:46.878Z,6.40
2023-03-07T17:43:15.388Z,6.30
2023-03-07T17:45:43.608Z,6.30
2023-03-07T17:48:12.027Z,6.30
2023-03-07T17:50:42.035Z,6.20
2023-03-07T17:53:12.515Z,6.20
2023-03-07T17:55:41.004Z,6.20
2023-03-07T17:58:10.252Z,6.20
2023-03-07T18:00:39.819Z,6.20
2023-03-07T18:03:08.283Z,6.20
2023-03-07T18:05:36.892Z,6.20
2023-03-07T18:08:05.459Z,6.10
2023-03-07T18:10:35.097Z,6.10
2023-03-07T18:13:04.112Z,6.10
2023-03-07T18:15:32.412Z,6.00
2023-03-07T18:18:00.814Z,6.00
2023-03-07T18:20:29.784Z,5.90
2023-03-07T18:22:58.105Z,6.00
2023-03-07T18:25:26.448Z,5.90
2023-03-07T18:27:56.200Z,5.90
2023-03-07T18:30:24.611Z,6.00
2023-03-07T18:32:55.391Z,5.90
2023-03-07T18:35:24.509Z,5.90
2023-03-07T18:37:52.883Z,5.90
2023-03-07T18:40:22.906Z,5.60
2023-03-07T18:42:51.333Z,6.00
2023-03-07T18:45:21.054Z,6.00
2023-03-07T18:47:49.447Z,5.90
2023-03-07T18:50:18.381Z,5.90
2023-03-07T18:52:46.708Z,5.90
2023-03-07T18:55:15.032Z,5.60
2023-03-07T18:57:43.431Z,5.90
2023-03-07T19:00:12.980Z,6.00
2023-03-07T19:02:42.682Z,6.00
2023-03-07T19:05:11.520Z,6.00
2023-03-07T19:07:39.877Z,6.10
2023-03-07T19:10:09.131Z,6.10
2023-03-07T19:12:37.422Z,6.10
2023-03-07T19:15:06.722Z,6.20
2023-03-07T19:17:40.494Z,6.20
2023-03-07T19:20:11.789Z,6.20
2023-03-07T19:22:40.225Z,6.20
2023-03-07T19:25:09.863Z,6.20
2023-03-07T19:27:38.344Z,6.20
2023-03-07T19:30:07.782Z,6.20
2023-03-07T19:32:36.135Z,6.20
2023-03-07T19:35:05.054Z,6.30
2023-03-07T19:37:36.679Z,6.30
2023-03-07T19:40:05.711Z,6.30
2023-03-07T19:42:34.017Z,6.30
2023-03-07T19:45:02.387Z,6.30
2023-03-07T19:47:30.718Z,6.30
2023-03-07T19:49:59.133Z,6.30
2023-03-07T19:52:27.584Z,6.40
2023-03-07T19:54:57.336Z,6.30
2023-03-07T19:57:25.894Z,6.30
2023-03-07T19:59:56.363Z,6.30
2023-03-07T20:02:26.204Z,6.40
2023-03-07T20:04:55.522Z,6.40
2023-03-07T20:07:24.009Z,6.40
2023-03-07T20:09:53.424Z,6.40
2023-03-07T20:12:23.116Z,6.40
2023-03-07T20:14:51.514Z,6.40
2023-03-07T20:17:19.810Z,6.40
2023-03-07T20:19:50.933Z,6.40
2023-03-07T20:22:20.713Z,6.40
2023-03-07T20:24:50.809Z,6.40
2023-03-07T20:27:21.883Z,6.40
2023-03-07T20:29:52.069Z,6.40
2023-03-07T20:32:20.924Z,6.40
2023-03-07T20:34:52.737Z,6.40
2023-03-07T20:37:21.184Z,6.40
2023-03-07T20:39:49.583Z,6.40
2023-03-07T20:42:17.926Z,6.40
2023-03-07T20:44:46.265Z,6.40
2023-03-07T20:47:15.909Z,6.40
2023-03-07T20:49:44.269Z,6.40
2023-03-07T20:52:12.669Z,6.40
2023-03-07T20:54:41.620Z,6.40
2023-03-07T20:57:09.988Z,6.40
2023-03-07T20:59:38.411Z,6.40
2023-03-07T21:02:07.718Z,6.40
2023-03-07T21:04:37.411Z,6.40
2023-03-07T21:07:05.734Z,6.40
2023-03-07T21:09:34.259Z,6.40
2023-03-07T21:12:02.594Z,6.40
2023-03-07T21:14:31.123Z,6.40
2023-03-07T21:17:02.555Z,6.40
2023-03-07T21:19:30.975Z,6.40
2023-03-07T21:22:00.690Z,6.40
2023-03-07T21:24:29.143Z,6.40
2023-03-07T21:26:58.332Z,6.40
2023-03-07T21:29:26.835Z,6.40
2023-03-07T21:31:55.735Z,6.40
2023-03-07T21:34:24.159Z,6.40
2023-03-07T21:36:56.026Z,6.40
2023-03-07T21:39:26.721Z,6.40
2023-03-07T21:41:55.145Z,6.40
2023-03-07T21:44:23.402Z,6.30
2023-03-07T21:46:51.811Z,6.40
2023-03-07T21:49:20.139Z,6.40
2023-03-07T21:51:48.429Z,6.40
2023-03-07T21:54:16.738Z,6.40
2023-03-07T21:56:46.447Z,6.30
2023-03-07T21:59:14.747Z,6.30
2023-03-07T22:01:43.073Z,6.40
2023-03-07T22:04:11.435Z,6.30
2023-03-07T22:06:39.790Z,6.30
2023-03-07T22:09:08.212Z,6.30
2023-03-07T22:11:36.761Z,6.30
2023-03-07T22:14:06.464Z,6.30
2023-03-07T22:16:34.952Z,6.40
2023-03-07T22:19:03.320Z,6.30
2023-03-07T22:21:31.657Z,6.40
2023-03-07T22:24:01.107Z,6.40
2023-03-07T22:26:31.871Z,6.40
2023-03-07T22:29:00.752Z,6.30
2023-03-07T22:31:30.608Z,6.30
2023-03-07T22:34:00.085Z,6.30
2023-03-07T22:36:28.681Z,6.30
2023-03-07T22:38:57.010Z,6.30
2023-03-07T22:41:26.551Z,6.30
2023-03-07T22:43:57.239Z,6.30
2023-03-07T22:46:25.924Z,6.30
2023-03-07T22:48:56.922Z,6.30
2023-03-07T22:51:26.216Z,6.30
2023-03-07T22:53:55.118Z,6.30
2023-03-07T22:56:25.526Z,6.30
2023-03-07T22:58:54.199Z,6.30
2023-03-07T23:01:24.267Z,6.40
2023-03-07T23:03:53.968Z,6.30
2023-03-07T23:06:25.388Z,6.30
2023-03-07T23:08:54.737Z,6.30
2023-03-07T23:11:25.297Z,6.30
2023-03-07T23:13:53.844Z,6.30
2023-03-07T23:16:25.337Z,6.30
2023-03-07T23:18:55.589Z,6.30
2023-03-07T23:21:27.727Z,6.30
2023-03-07T23:23:57.119Z,6.30
2023-03-07T23:26:27.784Z,6.30
2023-03-07T23:28:57.480Z,6.30
2023-03-07T23:31:27.482Z,6.30
2023-03-07T23:33:57.124Z,6.30
2023-03-07T23:36:28.359Z,6.30
2023-03-07T23:38:56.875Z,6.30
2023-03-07T23:41:25.550Z,6.30
2023-03-07T23:43:54.536Z,6.40
2023-03-07T23:46:23.066Z,6.30
2023-03-07T23:48:51.626Z,6.30
2023-03-07T23:51:20.317Z,6.30
2023-03-07T23:53:50.061Z,6.30
2023-03-07T23:56:18.468Z,6.30
2023-03-07T23:58:50.192Z,6.30
